Time;durP1;ratioP1;P1;durP2;ratioP2;P2;SDS_P1;SDS_P2;PMS_P1;PMS_P2;Temp;Humidity;BMP_temperature;BMP_pressure;BME280_temperature;BME280_humidity;BME280_pressure;Samples;Min_cycle;Max_cycle;Signal;HPM_P1;HPM_P2
2024/03/30 00:01:47;;;;;;;4.70;1.93;;;10.50;99.90;;;;;;5072576;28;20036;-52
2024/03/30 00:04:12;;;;;;;4.20;2.17;;;10.50;99.90;;;;;;5072146;28;20029;-47
2024/03/30 00:06:38;;;;;;;3.57;1.93;;;10.50;99.90;;;;;;5071888;28;20024;-51
2024/03/30 00:09:04;;;;;;;3.17;1.90;;;10.50;99.90;;;;;;5072164;28;20028;-49
2024/03/30 00:11:30;;;;;;;3.40;2.00;;;10.50;99.90;;;;;;5072249;28;20031;-49
2024/03/30 00:13:56;;;;;;;4.33;2.20;;;10.50;99.90;;;;;;5072155;28;20032;-49
2024/03/30 00:16:22;;;;;;;5.73;2.30;;;10.50;99.90;;;;;;5072208;28;20036;-49
2024/03/30 00:18:48;;;;;;;3.53;2.23;;;10.50;99.90;;;;;;5071942;28;20029;-49
2024/03/30 00:21:16;;;;;;;5.10;2.20;;;10.50;99.90;;;;;;5071750;28;20028;-49
2024/03/30 00:23:42;;;;;;;5.63;2.28;;;10.40;99.90;;;;;;5071945;28;20029;-47
2024/03/30 00:26:08;;;;;;;4.13;2.43;;;10.40;99.90;;;;;;5071927;28;20033;-47
2024/03/30 00:28:34;;;;;;;5.93;2.40;;;10.40;99.90;;;;;;5072249;28;20031;-47
2024/03/30 00:31:00;;;;;;;4.77;2.37;;;10.40;99.90;;;;;;5054018;28;20036;-52
2024/03/30 00:33:26;;;;;;;4.90;2.77;;;10.40;99.90;;;;;;5071909;28;20033;-47
2024/03/30 00:35:55;;;;;;;19.37;11.30;;;10.40;99.90;;;;;;5071506;28;20028;-52
2024/03/30 00:38:21;;;;;;;;;;;10.50;99.90;;;;;;5072379;28;20036;-52
2024/03/30 00:40:46;;;;;;;5.00;2.80;;;10.50;99.90;;;;;;5071729;28;19912;-52
2024/03/30 00:43:12;;;;;;;4.93;2.83;;;10.40;99.90;;;;;;5071835;28;20478;-52
2024/03/30 00:45:38;;;;;;;4.90;2.57;;;10.30;99.90;;;;;;5071685;28;20470;-53
2024/03/30 00:48:05;;;;;;;4.77;2.60;;;10.30;99.90;;;;;;5076310;28;20106;-52
2024/03/30 00:50:31;;;;;;;4.50;2.50;;;10.30;99.90;;;;;;5078254;28;20040;-53
2024/03/30 00:52:56;;;;;;;6.30;2.93;;;10.30;99.90;;;;;;5078444;28;20032;-54
2024/03/30 00:55:22;;;;;;;4.33;2.40;;;10.30;99.90;;;;;;5078086;28;20408;-51
2024/03/30 00:57:47;;;;;;;4.50;2.50;;;10.30;99.90;;;;;;5078327;28;20036;-51
2024/03/30 01:00:16;;;;;;;6.90;3.87;;;10.30;99.90;;;;;;5078110;28;20059;-50
2024/03/30 01:02:42;;;;;;;6.32;3.65;;;10.30;99.90;;;;;;5078294;28;20028;-53
2024/03/30 01:05:08;;;;;;;4.83;2.80;;;10.30;99.90;;;;;;5078008;28;20066;-48
2024/03/30 01:07:34;;;;;;;5.80;3.00;;;10.20;99.90;;;;;;5078189;28;20029;-51
2024/03/30 01:10:03;;;;;;;5.60;2.87;;;10.20;99.90;;;;;;5078149;28;20122;-50
2024/03/30 01:12:29;;;;;;;5.00;2.70;;;10.20;99.90;;;;;;5078265;28;20052;-51
2024/03/30 01:14:55;;;;;;;5.40;2.90;;;10.20;99.90;;;;;;5077968;28;20060;-51
2024/03/30 01:17:20;;;;;;;5.00;3.10;;;10.20;99.90;;;;;;5078009;28;20161;-51
2024/03/30 01:19:46;;;;;;;5.77;3.20;;;10.20;99.90;;;;;;5078003;28;20116;-52
2024/03/30 01:22:12;;;;;;;7.30;3.50;;;10.20;99.90;;;;;;5078069;28;20036;-52
2024/03/30 01:24:38;;;;;;;6.77;3.67;;;10.20;99.90;;;;;;5078052;28;20051;-52
2024/03/30 01:27:21;;;;;;;7.17;3.60;;;10.20;99.90;;;;;;5077948;28;20040;-51
2024/03/30 01:29:47;;;;;;;7.67;3.70;;;10.20;99.90;;;;;;5077966;28;20107;-51
2024/03/30 01:32:13;;;;;;;8.00;4.23;;;10.20;99.90;;;;;;5077868;28;20448;-52
2024/03/30 01:34:39;;;;;;;8.17;3.70;;;10.20;99.90;;;;;;5077943;28;20143;-52
2024/03/30 01:37:05;;;;;;;6.10;3.67;;;10.20;99.90;;;;;;5077796;28;20043;-51
2024/03/30 01:39:31;;;;;;;5.93;3.20;;;10.20;99.90;;;;;;5077998;28;20474;-49
2024/03/30 01:41:56;;;;;;;4.93;2.90;;;10.10;99.90;;;;;;5060071;28;20028;-49
2024/03/30 01:44:22;;;;;;;4.80;2.43;;;10.10;99.90;;;;;;5060094;28;20050;-53
2024/03/30 01:46:52;;;;;;;4.50;2.60;;;10.10;99.90;;;;;;5077547;28;20070;-51
2024/03/30 01:49:19;;;;;;;5.10;2.73;;;10.10;99.90;;;;;;5077865;28;20081;-48
2024/03/30 01:51:46;;;;;;;4.70;2.30;;;10.10;99.90;;;;;;5077803;28;20047;-48
2024/03/30 01:54:13;;;;;;;6.37;2.70;;;10.10;99.90;;;;;;5077820;28;20166;-53
2024/03/30 01:56:40;;;;;;;4.20;2.53;;;10.10;99.90;;;;;;5077484;28;20490;-49
2024/03/30 01:59:06;;;;;;;8.53;2.80;;;10.00;99.90;;;;;;5076007;28;20476;-48
2024/03/30 02:01:32;;;;;;;5.07;3.33;;;10.00;99.90;;;;;;5074382;28;20097;-53
2024/03/30 02:03:59;;;;;;;6.80;3.70;;;9.90;99.90;;;;;;5074531;28;20473;-49
2024/03/30 02:06:27;;;;;;;7.83;3.40;;;9.90;99.90;;;;;;5074330;28;20086;-52
2024/03/30 02:08:56;;;;;;;7.27;3.63;;;9.80;99.90;;;;;;5056489;28;20496;-52
2024/03/30 02:11:22;;;;;;;7.47;3.95;;;9.80;99.90;;;;;;5074455;28;20028;-48
2024/03/30 02:13:48;;;;;;;8.07;4.67;;;9.80;99.90;;;;;;5074318;28;20029;-53
2024/03/30 02:16:13;;;;;;;6.33;3.93;;;9.80;99.90;;;;;;5074105;28;20033;-53
2024/03/30 02:18:40;;;;;;;7.63;3.90;;;9.80;99.90;;;;;;5074290;28;20039;-53
2024/03/30 02:21:06;;;;;;;6.73;4.00;;;9.70;99.90;;;;;;5056196;28;20029;-52
2024/03/30 02:23:31;;;;;;;6.73;4.40;;;9.70;99.90;;;;;;5074258;28;20440;-51
2024/03/30 02:26:00;;;;;;;7.80;4.27;;;9.70;99.90;;;;;;5073930;28;20057;-51
2024/03/30 02:28:27;;;;;;;5.20;3.30;;;9.70;99.90;;;;;;5074068;28;20067;-49
2024/03/30 02:30:54;;;;;;;5.70;3.80;;;9.70;99.90;;;;;;5073942;28;20055;-51
2024/03/30 02:33:20;;;;;;;6.30;3.87;;;9.70;99.90;;;;;;5074056;28;20453;-48
2024/03/30 02:35:45;;;;;;;5.47;3.27;;;9.70;99.90;;;;;;5073875;28;20427;-50
2024/03/30 02:38:11;;;;;;;5.40;2.87;;;9.60;99.90;;;;;;5073930;28;20039;-53
2024/03/30 02:40:37;;;;;;;5.67;3.20;;;9.60;99.90;;;;;;5073760;28;20128;-52
2024/03/30 02:43:03;;;;;;;5.70;3.10;;;9.60;99.90;;;;;;5073710;28;20525;-51
2024/03/30 02:45:29;;;;;;;5.50;2.80;;;9.60;99.90;;;;;;5073548;28;20115;-50
2024/03/30 02:47:54;;;;;;;5.27;2.77;;;9.60;99.90;;;;;;5073701;28;20025;-53
2024/03/30 02:50:20;;;;;;;4.43;2.77;;;9.60;99.90;;;;;;5073626;28;20085;-50
2024/03/30 02:52:45;;;;;;;4.90;2.83;;;9.60;99.90;;;;;;5055744;28;20463;-51
2024/03/30 02:55:11;;;;;;;4.63;2.57;;;9.50;99.90;;;;;;5073398;28;20035;-51
2024/03/30 02:57:36;;;;;;;5.47;2.27;;;9.50;99.90;;;;;;5073285;28;20035;-52
2024/03/30 03:00:08;;;;;;;3.63;2.30;;;9.50;99.90;;;;;;5073313;28;20034;-49
2024/03/30 03:02:33;;;;;;;3.83;2.20;;;9.50;99.90;;;;;;5073578;28;20029;-54
2024/03/30 03:04:59;;;;;;;3.93;2.10;;;9.50;99.90;;;;;;5055323;28;20078;-52
2024/03/30 03:07:25;;;;;;;4.67;2.37;;;9.50;99.90;;;;;;5073727;28;20051;-51
2024/03/30 03:09:50;;;;;;;4.33;2.13;;;9.50;99.90;;;;;;5072659;28;20028;-51
2024/03/30 03:12:16;;;;;;;3.90;2.40;;;9.50;99.90;;;;;;5073240;28;20443;-54
2024/03/30 03:14:41;;;;;;;5.40;2.40;;;9.50;99.90;;;;;;5073125;28;20039;-54
2024/03/30 03:17:07;;;;;;;4.20;2.80;;;9.40;99.90;;;;;;5072941;28;20161;-54
2024/03/30 03:19:32;;;;;;;3.97;2.33;;;9.40;99.90;;;;;;5073101;28;20041;-54
2024/03/30 03:21:58;;;;;;;5.50;2.40;;;9.40;99.90;;;;;;5073040;28;20052;-54
2024/03/30 03:24:23;;;;;;;6.17;2.00;;;9.40;99.90;;;;;;5073035;28;20474;-52
2024/03/30 03:26:49;;;;;;;3.93;2.30;;;9.40;99.90;;;;;;5054859;28;20090;-53
2024/03/30 03:29:14;;;;;;;3.50;2.00;;;9.40;99.90;;;;;;5054937;28;20029;-53
2024/03/30 03:31:40;;;;;;;3.80;2.27;;;9.40;99.90;;;;;;5072793;28;20466;-53
2024/03/30 03:34:06;;;;;;;4.87;2.10;;;9.40;99.90;;;;;;5072747;28;20115;-53
2024/03/30 03:36:31;;;;;;;3.83;2.10;;;9.40;99.90;;;;;;5072681;28;20485;-53
2024/03/30 03:38:57;;;;;;;3.63;2.20;;;9.40;99.90;;;;;;5072653;28;20144;-52
2024/03/30 03:41:22;;;;;;;4.03;2.20;;;9.30;99.90;;;;;;5072525;28;20021;-52
2024/03/30 03:43:48;;;;;;;3.57;1.80;;;9.30;99.90;;;;;;5072591;28;20466;-49
2024/03/30 03:46:14;;;;;;;4.00;1.83;;;9.30;99.90;;;;;;5072361;28;20174;-53
2024/03/30 03:48:39;;;;;;;3.83;2.27;;;9.30;99.90;;;;;;5072544;28;20086;-50
2024/03/30 03:51:06;;;;;;;3.57;2.03;;;9.40;99.90;;;;;;5072464;28;20033;-53
2024/03/30 03:53:31;;;;;;;4.60;1.97;;;9.40;99.90;;;;;;5072499;28;20028;-51
2024/03/30 03:55:57;;;;;;;3.93;2.00;;;9.40;99.90;;;;;;5072002;28;20089;-52
2024/03/30 03:58:22;;;;;;;3.40;2.00;;;9.40;99.90;;;;;;5072338;28;20044;-51
2024/03/30 04:00:48;;;;;;;4.00;2.03;;;9.40;99.90;;;;;;5072099;28;20040;-51
2024/03/30 04:03:14;;;;;;;3.00;1.90;;;9.40;99.90;;;;;;5072312;28;20031;-53
2024/03/30 04:05:39;;;;;;;8.00;2.40;;;9.40;99.90;;;;;;5072308;28;20111;-53
2024/03/30 04:08:05;;;;;;;4.53;1.90;;;9.40;99.90;;;;;;5072141;28;20044;-52
2024/03/30 04:10:31;;;;;;;4.27;2.47;;;9.30;99.90;;;;;;5072009;28;20028;-52
2024/03/30 04:12:56;;;;;;;4.10;2.13;;;9.40;99.90;;;;;;5072147;28;20036;-53
2024/03/30 04:15:22;;;;;;;3.60;2.10;;;9.30;99.90;;;;;;5071910;28;20043;-53
2024/03/30 04:17:47;;;;;;;4.60;2.50;;;9.30;99.90;;;;;;5072066;28;20439;-52
2024/03/30 04:20:13;;;;;;;4.00;2.27;;;9.30;99.90;;;;;;5071867;28;20028;-51
2024/03/30 04:22:39;;;;;;;3.40;1.90;;;9.30;99.90;;;;;;5071299;28;20523;-53
2024/03/30 04:25:06;;;;;;;4.70;2.60;;;9.30;99.90;;;;;;5072267;28;20089;-53
2024/03/30 04:27:32;;;;;;;5.87;2.70;;;9.30;99.90;;;;;;5071927;28;20040;-52
2024/03/30 04:29:57;;;;;;;3.60;2.47;;;9.30;99.90;;;;;;5071816;28;20029;-53
2024/03/30 04:32:23;;;;;;;4.33;2.57;;;9.30;99.90;;;;;;5071977;28;20032;-51
2024/03/30 04:34:49;;;;;;;4.60;2.60;;;9.30;99.90;;;;;;5071739;28;20039;-50
2024/03/30 04:37:14;;;;;;;5.13;2.80;;;9.20;99.90;;;;;;5071786;28;20111;-53
2024/03/30 04:39:43;;;;;;;5.90;3.10;;;9.20;99.90;;;;;;5071679;28;20024;-52
2024/03/30 04:42:10;;;;;;;4.60;2.88;;;9.20;99.90;;;;;;5071781;28;20040;-52
2024/03/30 04:44:36;;;;;;;5.70;3.00;;;9.20;99.90;;;;;;5071705;28;20459;-52
2024/03/30 04:47:02;;;;;;;5.33;3.10;;;9.20;99.90;;;;;;5071522;28;20304;-52
2024/03/30 04:49:28;;;;;;;5.60;3.10;;;9.20;99.90;;;;;;5071918;28;20111;-50
2024/03/30 04:51:54;;;;;;;5.83;3.07;;;9.20;99.90;;;;;;5071603;28;20115;-52
2024/03/30 04:54:19;;;;;;;5.23;3.40;;;9.20;99.90;;;;;;5071672;28;20570;-50
2024/03/30 04:56:45;;;;;;;5.63;3.20;;;9.10;99.90;;;;;;5071363;28;20032;-51
2024/03/30 04:59:11;;;;;;;5.03;2.97;;;9.10;99.90;;;;;;5072024;28;20397;-49
2024/03/30 05:01:36;;;;;;;4.33;3.00;;;9.10;99.90;;;;;;5071767;28;20107;-52
2024/03/30 05:04:02;;;;;;;5.87;3.30;;;9.10;99.90;;;;;;5071808;28;20473;-52
2024/03/30 05:06:27;;;;;;;5.47;3.20;;;9.10;99.90;;;;;;5071947;28;20028;-53
2024/03/30 05:08:53;;;;;;;5.93;3.33;;;9.10;99.90;;;;;;5071569;28;20032;-52
2024/03/30 05:11:19;;;;;;;7.13;3.73;;;9.10;99.90;;;;;;5072070;28;20462;-51
2024/03/30 05:13:44;;;;;;;7.97;3.60;;;9.00;99.90;;;;;;5055273;28;20129;-48
2024/03/30 05:16:10;;;;;;;6.53;3.43;;;9.00;99.90;;;;;;5073004;28;20032;-53
2024/03/30 05:18:35;;;;;;;6.70;3.70;;;9.00;99.90;;;;;;5055496;28;20393;-52
2024/03/30 05:21:02;;;;;;;5.10;3.30;;;9.00;99.90;;;;;;5072829;28;20033;-52
2024/03/30 05:23:30;;;;;;;5.70;3.60;;;9.00;99.90;;;;;;5071406;28;20064;-53
2024/03/30 05:25:57;;;;;;;5.53;3.20;;;9.00;99.90;;;;;;5071240;28;20060;-53
2024/03/30 05:28:26;;;;;;;5.17;3.30;;;9.00;99.90;;;;;;5071276;28;20041;-51
2024/03/30 05:30:53;;;;;;;13.02;4.05;;;9.00;99.90;;;;;;5071340;28;20032;-49
2024/03/30 05:33:19;;;;;;;7.33;3.60;;;9.00;99.90;;;;;;5072155;28;20504;-51
2024/03/30 05:35:50;;;;;;;8.07;4.50;;;9.00;99.90;;;;;;5074797;28;20024;-51
2024/03/30 05:38:16;;;;;;;9.10;4.23;;;9.00;99.90;;;;;;5074930;28;20039;-51
2024/03/30 05:40:43;;;;;;;6.87;4.07;;;9.00;99.90;;;;;;5056905;28;20036;-49
2024/03/30 05:43:09;;;;;;;6.53;3.90;;;9.00;99.90;;;;;;5074916;28;20029;-49
2024/03/30 05:45:37;;;;;;;7.53;3.70;;;9.00;99.90;;;;;;5056798;28;20059;-51
2024/03/30 05:48:03;;;;;;;7.45;3.95;;;9.00;99.90;;;;;;5074991;28;20625;-51
2024/03/30 05:50:30;;;;;;;6.10;3.43;;;9.00;99.90;;;;;;5074671;28;20027;-51
2024/03/30 05:52:56;;;;;;;7.20;3.77;;;9.00;99.90;;;;;;5074867;28;20473;-49
2024/03/30 05:55:21;;;;;;;8.17;4.17;;;9.00;99.90;;;;;;5074481;28;20147;-52
2024/03/30 05:57:47;;;;;;;6.13;3.00;;;9.00;99.90;;;;;;5074660;28;20039;-50
2024/03/30 06:00:14;;;;;;;7.47;4.10;;;9.00;99.90;;;;;;5074424;28;20044;-52
2024/03/30 06:02:44;;;;;;;6.27;3.90;;;9.00;99.90;;;;;;5074604;28;20043;-49
2024/03/30 06:05:10;;;;;;;6.30;3.70;;;9.10;99.90;;;;;;5056365;28;20040;-49
2024/03/30 06:07:36;;;;;;;6.03;3.70;;;9.10;99.90;;;;;;5074460;28;20086;-48
2024/03/30 06:10:03;;;;;;;7.20;4.47;;;9.20;99.90;;;;;;5074312;28;20050;-49
2024/03/30 06:12:29;;;;;;;6.80;3.90;;;9.20;99.90;;;;;;5074353;28;20108;-48
2024/03/30 06:14:55;;;;;;;6.77;3.80;;;9.20;99.90;;;;;;5074263;28;20032;-47
2024/03/30 06:17:20;;;;;;;6.33;4.00;;;9.30;99.90;;;;;;5074239;28;20507;-49
2024/03/30 06:19:46;;;;;;;7.37;4.07;;;9.40;99.90;;;;;;5074165;28;20401;-48
2024/03/30 06:22:12;;;;;;;5.73;3.30;;;9.40;99.90;;;;;;5074385;28;20037;-48
2024/03/30 06:24:38;;;;;;;6.17;3.80;;;9.50;99.90;;;;;;5074324;28;20029;-47
2024/03/30 06:27:08;;;;;;;5.40;3.63;;;9.50;99.90;;;;;;5074160;28;20025;-49
2024/03/30 06:29:35;;;;;;;7.80;3.80;;;9.60;99.90;;;;;;5074271;28;20400;-48
2024/03/30 06:32:01;;;;;;;6.93;3.83;;;9.60;99.90;;;;;;5074142;28;20043;-48
2024/03/30 06:34:27;;;;;;;5.50;3.40;;;9.70;99.90;;;;;;5074180;28;20024;-49
2024/03/30 06:36:53;;;;;;;6.13;3.57;;;9.80;99.90;;;;;;5074085;28;20415;-48
2024/03/30 06:39:18;;;;;;;8.60;4.17;;;9.80;99.90;;;;;;5074315;28;20045;-49
2024/03/30 06:44:28;;;;;;;5.33;3.57;;;9.90;99.90;;;;;;5074461;28;20032;-49
2024/03/30 06:46:54;;;;;;;6.30;4.20;;;10.00;99.90;;;;;;5056390;28;20421;-49
2024/03/30 06:49:20;;;;;;;5.90;3.50;;;10.00;99.90;;;;;;5056780;28;20103;-48
2024/03/30 06:51:47;;;;;;;7.27;4.23;;;10.10;99.90;;;;;;5074599;28;20037;-49
2024/03/30 06:54:13;;;;;;;7.20;4.30;;;10.20;99.90;;;;;;5074207;28;20028;-53
2024/03/30 06:56:39;;;;;;;6.77;4.53;;;10.20;99.90;;;;;;5073279;28;20032;-49
2024/03/30 06:59:04;;;;;;;7.63;4.43;;;10.30;99.90;;;;;;5055408;28;20101;-52
2024/03/30 07:01:30;;;;;;;6.37;4.17;;;10.30;99.90;;;;;;5073324;28;20436;-53
2024/03/30 07:03:56;;;;;;;7.67;4.37;;;10.40;99.90;;;;;;5055392;28;20040;-53
2024/03/30 07:06:22;;;;;;;9.13;4.00;;;10.40;99.90;;;;;;5073149;28;20032;-53
2024/03/30 07:08:48;;;;;;;13.33;7.50;;;10.50;99.90;;;;;;5073423;28;20029;-53
2024/03/30 07:11:14;;;;;;;8.23;5.13;;;10.60;99.90;;;;;;5073191;28;20452;-50
2024/03/30 07:13:41;;;;;;;6.93;4.20;;;10.70;99.90;;;;;;5073316;28;20029;-53
2024/03/30 07:16:07;;;;;;;6.67;2.97;;;10.70;99.90;;;;;;5072953;28;20040;-48
2024/03/30 07:18:32;;;;;;;5.20;2.67;;;10.70;99.90;;;;;;5073193;28;20052;-52
2024/03/30 07:20:58;;;;;;;6.23;3.00;;;10.80;99.90;;;;;;5073048;28;20033;-55
2024/03/30 07:23:24;;;;;;;4.47;3.10;;;10.80;99.90;;;;;;5073005;28;20031;-48
2024/03/30 07:25:49;;;;;;;4.80;2.60;;;10.80;99.90;;;;;;5054952;28;20024;-52
2024/03/30 07:28:15;;;;;;;5.80;3.00;;;10.80;99.90;;;;;;5072820;28;20043;-52
2024/03/30 07:30:41;;;;;;;7.63;3.77;;;10.80;99.90;;;;;;5072866;28;20032;-52
2024/03/30 07:33:07;;;;;;;7.97;3.10;;;10.80;99.90;;;;;;5072901;28;20396;-53
2024/03/30 07:35:33;;;;;;;5.17;3.13;;;10.90;99.90;;;;;;5054602;28;20038;-50
2024/03/30 07:37:59;;;;;;;5.30;3.13;;;11.00;99.90;;;;;;5072791;28;20039;-53
2024/03/30 07:40:25;;;;;;;5.37;2.83;;;11.00;99.90;;;;;;5072528;28;20036;-52
2024/03/30 07:42:51;;;;;;;5.57;2.87;;;11.10;99.90;;;;;;5072694;28;20032;-52
2024/03/30 07:45:16;;;;;;;7.60;3.30;;;11.10;99.90;;;;;;5072521;28;20047;-51
2024/03/30 07:47:42;;;;;;;4.80;2.77;;;11.10;99.90;;;;;;5072634;28;20389;-51
2024/03/30 07:50:08;;;;;;;6.93;2.97;;;11.20;99.90;;;;;;5072404;28;20032;-51
2024/03/30 07:52:33;;;;;;;8.37;3.00;;;11.30;99.90;;;;;;5072529;28;20081;-50
2024/03/30 07:54:59;;;;;;;9.03;2.73;;;11.20;99.90;;;;;;5072235;28;20020;-53
2024/03/30 07:57:25;;;;;;;5.47;2.60;;;11.20;99.90;;;;;;5054170;28;20485;-51
2024/03/30 07:59:51;;;;;;;5.87;2.57;;;11.30;99.90;;;;;;5072234;28;20047;-52
2024/03/30 08:02:16;;;;;;;7.03;2.93;;;11.30;99.90;;;;;;5072268;28;20028;-51
2024/03/30 08:04:42;;;;;;;7.33;3.03;;;11.40;99.90;;;;;;5072242;28;20511;-53
2024/03/30 08:07:09;;;;;;;8.63;3.30;;;11.40;99.90;;;;;;5072001;28;20028;-52
2024/03/30 08:09:35;;;;;;;7.67;3.00;;;11.40;99.90;;;;;;5072106;28;20056;-50
2024/03/30 08:12:00;;;;;;;8.73;2.50;;;11.50;99.90;;;;;;5072075;28;20064;-52
2024/03/30 08:14:26;;;;;;;5.43;2.53;;;11.50;99.90;;;;;;5072283;28;20468;-50
2024/03/30 08:16:52;;;;;;;5.17;2.70;;;11.50;99.90;;;;;;5072194;28;20075;-52
2024/03/30 08:19:17;;;;;;;5.07;2.50;;;11.50;99.90;;;;;;5072092;28;20047;-52
2024/03/30 08:21:44;;;;;;;7.80;2.50;;;11.60;99.90;;;;;;5053968;28;20033;-52
2024/03/30 08:24:10;;;;;;;6.90;2.37;;;11.80;99.90;;;;;;5072031;28;20438;-52
2024/03/30 08:26:36;;;;;;;5.07;1.93;;;12.00;99.90;;;;;;5071834;28;20059;-52
2024/03/30 08:29:03;;;;;;;4.80;1.77;;;12.10;99.90;;;;;;5071916;28;20078;-53
2024/03/30 08:31:28;;;;;;;5.20;2.00;;;12.40;99.90;;;;;;5071894;28;20037;-52
2024/03/30 08:33:55;;;;;;;8.07;1.70;;;12.60;99.90;;;;;;5072019;28;20029;-54
2024/03/30 08:36:22;;;;;;;3.25;1.50;;;12.90;99.90;;;;;;5071622;28;20071;-53
2024/03/30 08:38:47;;;;;;;6.05;1.25;;;13.20;99.90;;;;;;5071887;28;20670;-52
2024/03/30 08:41:13;;;;;;;7.68;1.63;;;13.70;99.90;;;;;;5071654;28;20059;-53
2024/03/30 08:43:39;;;;;;;2.55;1.38;;;14.10;99.90;;;;;;5072030;28;20086;-52
2024/03/30 08:46:04;;;;;;;6.65;1.60;;;14.30;99.90;;;;;;5071530;28;20047;-53
2024/03/30 08:48:33;;;;;;;6.50;1.20;;;14.40;99.90;;;;;;5053650;28;20489;-53
2024/03/30 08:50:59;;;;;;;8.73;1.42;;;14.50;99.90;;;;;;5071719;28;20033;-49
2024/03/30 08:53:25;;;;;;;7.60;1.60;;;14.50;99.90;;;;;;5071744;28;20123;-54
2024/03/30 08:56:01;;;;;;;3.80;1.35;;;14.60;99.90;;;;;;5071301;28;20115;-52
2024/03/30 08:58:27;;;;;;;9.80;1.60;;;14.80;99.90;;;;;;5053729;28;20064;-53
2024/03/30 09:00:53;;;;;;;11.38;1.70;;;15.00;99.90;;;;;;5071546;28;20032;-51
2024/03/30 09:03:19;;;;;;;7.70;1.48;;;15.20;99.90;;;;;;5071632;28;20102;-52
2024/03/30 09:05:45;;;;;;;7.57;1.52;;;15.40;99.90;;;;;;5071387;28;20064;-48
2024/03/30 09:08:11;;;;;;;6.38;1.40;;;15.50;99.90;;;;;;5054367;28;20344;-52
2024/03/30 09:10:37;;;;;;;9.18;1.80;;;15.50;99.90;;;;;;5075569;28;20521;-54
2024/03/30 09:13:03;;;;;;;9.38;1.88;;;15.60;99.90;;;;;;5057714;28;20097;-53
2024/03/30 09:15:29;;;;;;;7.85;1.83;;;15.60;99.90;;;;;;5075407;28;20031;-53
2024/03/30 09:17:55;;;;;;;8.93;1.83;;;15.60;99.90;;;;;;5075558;28;20388;-53
2024/03/30 09:20:21;;;;;;;13.88;2.58;;;15.60;99.90;;;;;;5075305;28;20039;-54
2024/03/30 09:22:47;;;;;;;14.85;5.10;;;15.60;99.90;;;;;;5075363;28;20033;-53
2024/03/30 09:25:14;;;;;;;29.48;13.98;;;15.70;99.90;;;;;;5075201;28;20078;-53
2024/03/30 09:27:40;;;;;;;12.60;2.13;;;15.70;99.90;;;;;;5075292;28;20024;-49
2024/03/30 09:30:08;;;;;;;9.93;1.88;;;15.80;99.90;;;;;;5075155;28;20059;-51
2024/03/30 09:32:36;;;;;;;11.63;1.98;;;15.90;99.90;;;;;;5075225;28;20033;-52
2024/03/30 09:35:02;;;;;;;11.83;2.40;;;16.00;99.90;;;;;;5075042;28;20036;-53
2024/03/30 09:37:28;;;;;;;9.73;1.80;;;16.30;99.90;;;;;;5074897;28;20032;-52
2024/03/30 09:39:53;;;;;;;14.95;2.00;;;16.40;99.90;;;;;;5074878;28;20370;-53
2024/03/30 09:42:32;;;;;;;22.95;7.65;;;16.60;99.90;;;;;;5074864;28;20028;-54
2024/03/30 09:44:59;;;;;;;18.98;2.45;;;16.80;99.90;;;;;;5074912;28;20397;-54
2024/03/30 09:47:26;;;;;;;17.63;1.98;;;17.00;99.90;;;;;;5074896;28;20021;-52
2024/03/30 09:49:52;;;;;;;17.52;2.45;;;17.10;99.90;;;;;;5074895;28;20024;-52
2024/03/30 09:52:24;;;;;;;11.13;2.35;;;17.10;99.90;;;;;;5074693;28;20028;-53
2024/03/30 09:54:51;;;;;;;16.08;1.73;;;17.00;99.90;;;;;;5074663;28;20029;-53
2024/03/30 09:57:17;;;;;;;19.65;2.55;;;16.90;99.90;;;;;;5074586;28;20040;-50
2024/03/30 09:59:46;;;;;;;15.95;1.77;;;16.80;99.90;;;;;;5074947;28;20040;-51
2024/03/30 10:02:13;;;;;;;18.13;2.25;;;16.60;99.90;;;;;;5074543;28;20048;-51
2024/03/30 10:04:39;;;;;;;13.43;3.03;;;16.50;99.90;;;;;;5074524;28;20446;-53
2024/03/30 10:07:12;;;;;;;16.52;3.85;;;16.60;99.90;;;;;;5074313;28;20497;-51
2024/03/30 10:09:38;;;;;;;13.60;4.75;;;16.60;99.90;;;;;;5074431;28;20024;-49
2024/03/30 10:12:11;;;;;;;26.20;3.25;;;16.60;99.90;;;;;;5056386;28;20389;-53
2024/03/30 10:14:43;;;;;;;18.80;2.28;;;16.70;99.90;;;;;;5074408;28;20025;-53
2024/03/30 10:17:09;;;;;;;16.17;2.38;;;16.90;99.90;;;;;;5074209;28;20036;-52
2024/03/30 10:19:35;;;;;;;26.08;2.97;;;17.10;99.90;;;;;;5073149;28;20496;-50
2024/03/30 10:22:03;;;;;;;20.38;3.13;;;17.20;99.90;;;;;;5073818;28;20114;-49
2024/03/30 10:24:29;;;;;;;20.05;2.78;;;17.30;99.90;;;;;;5074213;28;20367;-53
2024/03/30 10:26:55;;;;;;;20.25;3.25;;;17.40;99.90;;;;;;5073968;28;20028;-50
2024/03/30 10:29:21;;;;;;;24.90;2.97;;;17.40;99.90;;;;;;5056098;28;20039;-53
2024/03/30 10:31:47;;;;;;;22.63;2.83;;;17.60;99.90;;;;;;5073947;28;20032;-51
2024/03/30 10:34:13;;;;;;;27.90;3.83;;;17.60;99.90;;;;;;5074053;28;20504;-50
2024/03/30 10:36:39;;;;;;;22.30;3.00;;;17.70;99.90;;;;;;5073701;28;20485;-53
2024/03/30 10:39:05;;;;;;;19.90;2.97;;;17.70;99.90;;;;;;5073978;28;20112;-53
2024/03/30 10:41:31;;;;;;;21.23;3.00;;;17.80;99.90;;;;;;5073830;28;20492;-51
2024/03/30 10:43:56;;;;;;;23.13;2.60;;;17.90;99.80;;;;;;5073915;28;20035;-50
2024/03/30 10:46:26;;;;;;;23.65;3.03;;;17.90;99.70;;;;;;5073501;28;20021;-53
2024/03/30 10:48:52;;;;;;;29.83;3.40;;;17.90;99.50;;;;;;5073747;28;20028;-53
2024/03/30 10:51:23;;;;;;;17.73;3.92;;;17.90;99.40;;;;;;5073558;28;20371;-51
2024/03/30 10:53:49;;;;;;;22.90;2.78;;;17.90;99.20;;;;;;5073748;28;20078;-53
2024/03/30 10:56:15;;;;;;;25.08;4.10;;;17.90;99.10;;;;;;5073358;28;20021;-48
2024/03/30 10:58:40;;;;;;;24.02;3.67;;;17.90;99.10;;;;;;5073491;28;20032;-52
2024/03/30 11:01:08;;;;;;;24.40;2.80;;;17.90;98.90;;;;;;5073379;28;20024;-52
2024/03/30 11:03:34;;;;;;;24.15;4.13;;;17.90;98.40;;;;;;5073541;28;20063;-50
2024/03/30 11:06:01;;;;;;;28.05;4.57;;;17.90;98.30;;;;;;5073149;28;20056;-50
2024/03/30 11:08:27;;;;;;;27.63;3.30;;;17.90;98.00;;;;;;5073370;28;20500;-48
2024/03/30 11:10:54;;;;;;;25.63;3.55;;;17.90;97.70;;;;;;5073299;28;20037;-49
2024/03/30 11:13:20;;;;;;;26.35;3.88;;;17.90;97.40;;;;;;5073240;28;20029;-49
2024/03/30 11:15:48;;;;;;;24.42;4.47;;;17.90;97.80;;;;;;5073227;28;20025;-48
2024/03/30 11:18:24;;;;;;;40.22;4.22;;;17.90;97.50;;;;;;5073183;28;20035;-49
2024/03/30 11:21:14;;;;;;;31.35;3.65;;;17.90;97.80;;;;;;5072977;28;20127;-51
2024/03/30 11:23:51;;;;;;;25.95;4.15;;;17.80;98.20;;;;;;5073036;28;20107;-50
2024/03/30 11:26:21;;;;;;;37.30;4.53;;;17.80;98.10;;;;;;5072810;28;20017;-49
2024/03/30 11:28:57;;;;;;;24.40;3.63;;;17.80;98.30;;;;;;5072931;28;20033;-48
2024/03/30 11:31:39;;;;;;;28.80;3.80;;;17.70;98.30;;;;;;5072488;28;20059;-48
2024/03/30 11:34:21;;;;;;;28.33;3.13;;;17.80;98.30;;;;;;5072798;28;20032;-52
2024/03/30 11:37:00;;;;;;;27.58;3.35;;;17.70;98.70;;;;;;5072621;28;20032;-50
2024/03/30 11:39:51;;;;;;;;;;;17.80;98.80;;;;;;5073317;28;20089;-50
2024/03/30 11:42:25;;;;;;;31.08;3.88;;;17.80;98.90;;;;;;5072683;28;19919;-52
2024/03/30 11:44:52;;;;;;;35.35;4.35;;;17.80;98.80;;;;;;5072615;28;20397;-51
2024/03/30 11:47:19;;;;;;;26.90;4.55;;;17.70;98.90;;;;;;5072480;28;20029;-51
2024/03/30 11:49:45;;;;;;;30.90;4.05;;;17.80;98.60;;;;;;5072443;28;20074;-51
2024/03/30 11:52:11;;;;;;;35.33;4.07;;;17.70;99.20;;;;;;5072539;28;20389;-50
2024/03/30 11:54:37;;;;;;;31.45;4.25;;;17.70;99.00;;;;;;5072495;28;20426;-48
2024/03/30 11:57:12;;;;;;;29.25;3.90;;;17.70;98.60;;;;;;5072111;28;20117;-48
2024/03/30 11:59:39;;;;;;;34.40;4.68;;;17.70;98.90;;;;;;5072258;28;20158;-50
2024/03/30 12:02:15;;;;;;;28.40;4.55;;;17.70;99.10;;;;;;5072217;28;20059;-48
2024/03/30 12:04:47;;;;;;;30.88;3.70;;;17.70;99.30;;;;;;5072277;28;20370;-49
2024/03/30 12:07:14;;;;;;;30.95;4.43;;;17.70;98.70;;;;;;5071994;28;20028;-48
2024/03/30 12:09:40;;;;;;;41.58;4.15;;;17.70;98.80;;;;;;5072502;28;20029;-48
2024/03/30 12:12:09;;;;;;;34.83;4.35;;;17.80;98.70;;;;;;5072245;28;20028;-48
2024/03/30 12:14:41;;;;;;;40.55;4.82;;;17.80;98.70;;;;;;5072106;28;20028;-49
2024/03/30 12:17:07;;;;;;;27.13;4.03;;;17.70;98.80;;;;;;5071935;28;20028;-48
2024/03/30 12:19:34;;;;;;;28.77;3.78;;;17.80;98.30;;;;;;5071888;28;20424;-49
2024/03/30 12:22:00;;;;;;;26.70;3.58;;;17.70;98.70;;;;;;5071871;28;20028;-49
2024/03/30 12:24:26;;;;;;;36.60;4.95;;;17.70;98.50;;;;;;5072283;28;20028;-53
2024/03/30 12:26:53;;;;;;;34.50;3.97;;;17.60;98.70;;;;;;5053918;28;20034;-53
2024/03/30 12:29:19;;;;;;;27.35;3.53;;;17.50;98.30;;;;;;5071953;28;20104;-54
2024/03/30 12:31:44;;;;;;;33.90;4.97;;;17.50;98.30;;;;;;5071927;28;20441;-54
2024/03/30 12:34:11;;;;;;;27.27;3.60;;;17.50;98.10;;;;;;5053882;28;20481;-53
2024/03/30 12:36:37;;;;;;;25.83;3.85;;;17.60;98.00;;;;;;5071615;28;20025;-51
2024/03/30 12:39:03;;;;;;;32.25;3.88;;;17.60;98.00;;;;;;5072012;28;20033;-49
2024/03/30 12:41:29;;;;;;;33.03;4.15;;;17.60;97.80;;;;;;5071639;28;20028;-51
2024/03/30 12:43:59;;;;;;;24.13;3.45;;;17.60;97.80;;;;;;5071124;28;20029;-53
2024/03/30 12:46:24;;;;;;;30.30;4.63;;;17.60;98.10;;;;;;5071765;28;20028;-52
2024/03/30 12:48:50;;;;;;;29.50;4.55;;;17.60;97.90;;;;;;5071666;28;20054;-50